Time;durP1;ratioP1;P1;durP2;ratioP2;P2;SDS_P1;SDS_P2;PMS_P1;PMS_P2;Temp;Humidity;BMP_temperature;BMP_pressure;BME280_temperature;BME280_humidity;BME280_pressure;Samples;Min_cycle;Max_cycle;Signal;HPM_P1;HPM_P2
2022/01/31 00:01:50;;;;;;;10.53;2.33;;;3.60;99.90;;;;;;5046037;23;20426;-80
2022/01/31 00:03:52;;;;;;;14.83;2.93;;;3.60;99.90;;;;;;5045508;23;20780;-80
2022/01/31 00:05:54;;;;;;;13.20;2.60;;;3.60;99.90;;;;;;5045683;23;20429;-79
2022/01/31 00:07:56;;;;;;;16.30;2.90;;;3.60;99.90;;;;;;5045092;23;20426;-80
2022/01/31 00:09:58;;;;;;;14.77;2.97;;;3.30;99.90;;;;;;5044574;23;20459;-79
2022/01/31 00:12:03;;;;;;;9.40;2.40;;;3.50;99.90;;;;;;5046115;23;20421;-79
2022/01/31 00:14:14;;;;;;;12.90;2.10;;;3.50;99.90;;;;;;5045036;23;20516;-80
2022/01/31 00:16:23;;;;;;;11.70;2.53;;;3.80;99.90;;;;;;5046154;23;20860;-79
2022/01/31 00:18:26;;;;;;;16.43;2.93;;;3.50;99.90;;;;;;5046064;23;20404;-79
2022/01/31 00:20:29;;;;;;;15.43;2.67;;;3.50;99.90;;;;;;5044947;23;20424;-79
2022/01/31 00:22:30;;;;;;;11.53;2.47;;;3.50;99.90;;;;;;5047164;23;20425;-81
2022/01/31 00:24:33;;;;;;;15.50;2.10;;;3.50;99.90;;;;;;5050220;23;20413;-81
2022/01/31 00:26:35;;;;;;;16.87;2.50;;;3.50;99.90;;;;;;5048067;23;20421;-80
2022/01/31 00:28:37;;;;;;;10.17;2.73;;;3.50;99.90;;;;;;5049654;23;20449;-81
2022/01/31 00:30:39;;;;;;;17.90;2.87;;;3.50;99.90;;;;;;5048416;23;20851;-80
2022/01/31 00:32:41;;;;;;;19.00;2.90;;;3.40;99.90;;;;;;5047391;23;20496;-80
2022/01/31 00:34:44;;;;;;;12.90;2.37;;;3.50;99.90;;;;;;5046552;23;20501;-80
2022/01/31 00:36:45;;;;;;;12.07;2.40;;;3.40;99.90;;;;;;5047859;23;20457;-81
2022/01/31 00:38:47;;;;;;;11.77;2.13;;;3.40;99.90;;;;;;5044200;23;20457;-77
2022/01/31 00:40:49;;;;;;;16.13;3.40;;;3.40;99.90;;;;;;5043721;23;20730;-78
2022/01/31 00:42:51;;;;;;;19.20;2.70;;;3.40;99.90;;;;;;5043346;23;20428;-78
2022/01/31 00:44:55;;;;;;;14.40;3.03;;;3.40;99.90;;;;;;5043299;23;20457;-80
2022/01/31 00:46:59;;;;;;;17.87;2.97;;;3.60;99.90;;;;;;5043776;23;20417;-80
2022/01/31 00:49:01;;;;;;;10.23;2.40;;;3.40;99.90;;;;;;5044510;23;20437;-79
2022/01/31 00:51:04;;;;;;;22.87;2.87;;;3.40;99.90;;;;;;5045765;23;20401;-78
2022/01/31 00:53:07;;;;;;;12.17;2.40;;;3.40;99.90;;;;;;5043702;23;20425;-79
2022/01/31 00:55:11;;;;;;;14.27;3.40;;;3.40;99.90;;;;;;5045623;23;20461;-79
2022/01/31 00:57:12;;;;;;;14.73;2.70;;;3.40;99.90;;;;;;5046617;23;20436;-79
2022/01/31 00:59:14;;;;;;;18.43;3.30;;;3.40;99.90;;;;;;5046047;23;20441;-79
2022/01/31 01:01:16;;;;;;;17.10;2.87;;;3.40;99.90;;;;;;5044071;23;20413;-79
2022/01/31 01:03:18;;;;;;;11.47;2.83;;;3.10;99.90;;;;;;5044490;23;20429;-78
2022/01/31 01:05:28;;;;;;;19.17;3.87;;;3.40;99.90;;;;;;5043535;23;20801;-78
2022/01/31 01:07:32;;;;;;;11.07;2.43;;;3.30;99.90;;;;;;5050617;23;20428;-79
2022/01/31 01:09:33;;;;;;;12.33;2.90;;;3.30;99.90;;;;;;5049732;23;20441;-80
2022/01/31 01:11:36;;;;;;;17.57;2.60;;;4.10;99.90;;;;;;5048093;23;20429;-81
2022/01/31 01:13:37;;;;;;;16.87;3.20;;;3.30;99.90;;;;;;5043544;23;20477;-78
2022/01/31 01:15:40;;;;;;;12.57;2.37;;;3.30;99.90;;;;;;5044461;23;20441;-79
2022/01/31 01:17:45;;;;;;;13.80;2.47;;;3.30;99.90;;;;;;5047685;23;20414;-79
2022/01/31 01:19:47;;;;;;;12.93;2.60;;;3.30;99.90;;;;;;5045172;23;20767;-79
2022/01/31 01:21:49;;;;;;;18.07;2.70;;;3.30;99.90;;;;;;5044309;23;20476;-79
2022/01/31 01:23:52;;;;;;;19.57;3.63;;;3.30;99.90;;;;;;5046362;23;20865;-79
2022/01/31 01:25:54;;;;;;;14.73;2.67;;;3.30;99.90;;;;;;5048305;23;20742;-80
2022/01/31 01:27:56;;;;;;;9.43;2.27;;;3.20;99.90;;;;;;5050570;23;20477;-79
2022/01/31 01:29:58;;;;;;;15.13;2.97;;;3.30;99.90;;;;;;5052789;23;20497;-80
2022/01/31 01:31:59;;;;;;;12.37;2.70;;;3.30;99.90;;;;;;5057199;23;20464;-78
2022/01/31 01:34:01;;;;;;;19.90;3.53;;;3.30;99.90;;;;;;5057310;23;20492;-79
2022/01/31 01:36:04;;;;;;;20.00;3.50;;;3.20;99.90;;;;;;5060159;23;20505;-80
2022/01/31 01:38:07;;;;;;;19.13;3.27;;;3.20;99.90;;;;;;5060906;23;21040;-80
2022/01/31 01:40:11;;;;;;;12.57;2.73;;;3.20;99.90;;;;;;5061919;23;20429;-80
2022/01/31 01:42:13;;;;;;;16.30;2.77;;;3.20;99.90;;;;;;5063626;23;20424;-79
2022/01/31 01:44:15;;;;;;;10.47;2.50;;;3.10;99.90;;;;;;5061889;23;20405;-80
2022/01/31 01:46:17;;;;;;;19.80;2.93;;;3.20;99.90;;;;;;5063694;23;20409;-77
2022/01/31 01:48:18;;;;;;;14.83;2.80;;;3.10;99.90;;;;;;5063056;23;20480;-77
2022/01/31 01:50:20;;;;;;;24.70;4.07;;;3.10;99.90;;;;;;5061549;23;20424;-79
2022/01/31 01:52:22;;;;;;;17.43;3.30;;;3.10;99.90;;;;;;5060298;23;20422;-81
2022/01/31 01:54:24;;;;;;;18.37;3.00;;;3.00;99.90;;;;;;5056305;23;20453;-82
2022/01/31 01:56:28;;;;;;;20.23;2.83;;;3.50;99.90;;;;;;5054572;23;20417;-82
2022/01/31 01:58:38;;;;;;;16.63;2.87;;;3.00;99.90;;;;;;5053039;23;20442;-80
2022/01/31 02:00:50;;;;;;;11.97;2.17;;;3.00;99.90;;;;;;5048058;23;20727;-81
2022/01/31 02:02:52;;;;;;;13.40;2.80;;;3.00;99.90;;;;;;5045845;23;20409;-81
2022/01/31 02:04:54;;;;;;;14.63;3.07;;;3.00;99.90;;;;;;5043974;23;20418;-81
2022/01/31 02:06:56;;;;;;;15.33;2.63;;;3.00;99.90;;;;;;5044603;23;20811;-81
2022/01/31 02:08:58;;;;;;;13.20;2.70;;;3.00;99.90;;;;;;5045121;23;20439;-81
2022/01/31 02:11:00;;;;;;;15.63;2.33;;;3.00;99.90;;;;;;5043367;23;20417;-81
2022/01/31 02:13:06;;;;;;;15.13;2.47;;;3.00;99.90;;;;;;5044274;23;20457;-81
2022/01/31 02:15:09;;;;;;;18.80;3.50;;;3.20;99.90;;;;;;5044193;23;20441;-81
2022/01/31 02:17:11;;;;;;;23.70;3.17;;;2.90;99.90;;;;;;5043736;23;20451;-81
2022/01/31 02:19:15;;;;;;;18.03;2.73;;;2.90;99.90;;;;;;5044721;23;20421;-81
2022/01/31 02:21:19;;;;;;;17.23;3.33;;;2.90;99.90;;;;;;5044995;23;20432;-80
2022/01/31 02:23:23;;;;;;;20.83;3.00;;;2.90;99.90;;;;;;5046084;23;20812;-81
2022/01/31 02:25:25;;;;;;;12.30;2.13;;;2.90;99.90;;;;;;5045364;23;20405;-79
2022/01/31 02:27:28;;;;;;;12.43;2.97;;;2.90;99.90;;;;;;5043091;23;20879;-79
2022/01/31 02:29:30;;;;;;;15.60;2.80;;;2.90;99.90;;;;;;5042493;23;20429;-79
2022/01/31 02:31:32;;;;;;;20.70;3.03;;;2.80;99.90;;;;;;5042948;23;20896;-79
2022/01/31 02:33:34;;;;;;;16.23;3.10;;;2.80;99.90;;;;;;5043096;23;20425;-80
2022/01/31 02:35:36;;;;;;;16.67;2.73;;;2.80;99.90;;;;;;5042736;23;20461;-79
2022/01/31 02:37:39;;;;;;;31.50;4.30;;;2.80;99.90;;;;;;5043441;23;20472;-80
2022/01/31 02:39:41;;;;;;;16.43;3.33;;;2.80;99.90;;;;;;5055512;23;20498;-78
2022/01/31 02:41:44;;;;;;;12.40;3.63;;;3.30;99.90;;;;;;5066600;23;20400;-78
2022/01/31 02:43:49;;;;;;;22.10;3.70;;;2.80;99.90;;;;;;5066709;23;20860;-78
2022/01/31 02:45:52;;;;;;;21.50;3.00;;;2.80;99.90;;;;;;5067652;23;20403;-77
2022/01/31 02:47:56;;;;;;;15.33;2.70;;;2.80;99.90;;;;;;5067331;23;20447;-78
2022/01/31 02:50:00;;;;;;;10.67;2.33;;;2.80;99.90;;;;;;5048362;23;21011;-78
2022/01/31 02:52:05;;;;;;;14.57;2.47;;;2.80;99.90;;;;;;5042632;23;20416;-77
2022/01/31 02:54:08;;;;;;;11.57;2.33;;;2.80;99.90;;;;;;5043688;23;20493;-78
2022/01/31 02:56:10;;;;;;;17.77;2.70;;;2.80;99.90;;;;;;5043697;23;20531;-77
2022/01/31 02:58:13;;;;;;;18.03;3.33;;;2.80;99.90;;;;;;5044379;23;20425;-77
2022/01/31 03:00:15;;;;;;;24.53;2.67;;;2.80;99.90;;;;;;5044175;23;20493;-77
2022/01/31 03:02:17;;;;;;;21.00;3.37;;;2.80;99.90;;;;;;5045109;23;20487;-78
2022/01/31 03:04:19;;;;;;;15.10;2.93;;;2.80;99.90;;;;;;5046720;23;20425;-77
2022/01/31 03:06:21;;;;;;;17.77;2.90;;;2.80;99.90;;;;;;5046951;23;20444;-78
2022/01/31 03:08:23;;;;;;;11.40;2.87;;;2.80;99.90;;;;;;5044806;23;20642;-79
2022/01/31 03:10:27;;;;;;;22.87;3.27;;;2.80;99.90;;;;;;5044646;23;20441;-79
2022/01/31 03:12:29;;;;;;;16.10;2.90;;;2.80;99.90;;;;;;5042971;23;20409;-78
2022/01/31 03:14:31;;;;;;;12.40;2.40;;;2.80;99.90;;;;;;5043382;23;20424;-78
2022/01/31 03:16:34;;;;;;;18.13;3.10;;;2.80;99.90;;;;;;5043561;23;20410;-78
2022/01/31 03:18:36;;;;;;;13.33;2.20;;;2.80;99.90;;;;;;5043601;23;20421;-78
2022/01/31 03:20:38;;;;;;;18.13;3.43;;;2.80;99.90;;;;;;5044873;23;20425;-77
2022/01/31 03:22:40;;;;;;;15.73;3.23;;;2.80;99.90;;;;;;5044746;23;20457;-79
2022/01/31 03:24:43;;;;;;;18.70;2.80;;;2.80;99.90;;;;;;5044476;23;20887;-78
2022/01/31 03:26:46;;;;;;;17.17;2.97;;;2.80;99.90;;;;;;5045100;23;20429;-78
2022/01/31 03:28:49;;;;;;;15.93;3.13;;;3.00;99.90;;;;;;5045219;23;20762;-78
2022/01/31 03:30:52;;;;;;;16.43;3.10;;;2.80;99.90;;;;;;5044935;23;20788;-77
2022/01/31 03:32:53;;;;;;;19.17;2.83;;;2.80;99.90;;;;;;5044712;23;20431;-77
2022/01/31 03:34:55;;;;;;;18.87;3.13;;;2.80;99.90;;;;;;5043680;23;20979;-76
2022/01/31 03:36:57;;;;;;;21.43;3.70;;;2.80;99.90;;;;;;5043691;23;20421;-76
2022/01/31 03:38:58;;;;;;;20.73;3.97;;;2.70;99.90;;;;;;5045002;23;21019;-75
2022/01/31 03:41:00;;;;;;;18.27;3.30;;;2.80;99.90;;;;;;5044874;23;20869;-75
2022/01/31 03:43:03;;;;;;;16.70;3.67;;;2.80;99.90;;;;;;5044712;23;20424;-75
2022/01/31 03:45:08;;;;;;;11.17;2.70;;;2.70;99.90;;;;;;5041943;23;20420;-75
2022/01/31 03:47:09;;;;;;;15.33;2.67;;;2.70;99.90;;;;;;5044166;23;20442;-77
2022/01/31 03:49:11;;;;;;;15.93;2.63;;;2.70;99.90;;;;;;5044969;23;20470;-77
2022/01/31 03:51:14;;;;;;;14.87;2.60;;;2.70;99.90;;;;;;5043824;23;20421;-75
2022/01/31 03:53:16;;;;;;;15.63;3.30;;;2.70;99.90;;;;;;5045045;23;20425;-77
2022/01/31 03:55:18;;;;;;;18.47;3.10;;;2.60;99.90;;;;;;5044443;23;20449;-77
2022/01/31 03:57:20;;;;;;;21.60;3.90;;;2.70;99.90;;;;;;5044997;23;20904;-76
2022/01/31 03:59:23;;;;;;;19.77;3.30;;;2.60;99.90;;;;;;5043842;23;20441;-76
2022/01/31 04:01:26;;;;;;;13.23;3.20;;;2.60;99.90;;;;;;5043933;23;20736;-76
2022/01/31 04:03:28;;;;;;;22.60;3.47;;;2.60;99.90;;;;;;5044779;23;20457;-75
2022/01/31 04:05:31;;;;;;;20.30;3.00;;;2.60;99.90;;;;;;5044022;23;20417;-75
2022/01/31 04:07:33;;;;;;;21.20;3.73;;;2.60;99.90;;;;;;5044563;23;20405;-76
2022/01/31 04:09:34;;;;;;;21.33;2.70;;;2.60;99.90;;;;;;5044684;23;20829;-77
2022/01/31 04:11:36;;;;;;;16.27;3.60;;;2.60;99.90;;;;;;5044686;23;20588;-78
2022/01/31 04:13:38;;;;;;;16.77;3.57;;;2.60;99.90;;;;;;5045015;23;20417;-78
2022/01/31 04:15:41;;;;;;;15.60;2.63;;;2.60;99.90;;;;;;5043253;23;20972;-78
2022/01/31 04:17:43;;;;;;;19.53;3.07;;;2.60;99.90;;;;;;5044733;23;20984;-78
2022/01/31 04:19:45;;;;;;;23.07;3.83;;;2.60;99.90;;;;;;5043153;23;20455;-78
2022/01/31 04:21:46;;;;;;;21.43;3.30;;;2.60;99.90;;;;;;5042326;23;20420;-77
2022/01/31 04:23:50;;;;;;;25.13;3.50;;;2.60;99.90;;;;;;5044860;23;20868;-77
2022/01/31 04:25:54;;;;;;;15.33;3.07;;;2.50;99.90;;;;;;5043762;23;20421;-77
2022/01/31 04:28:03;;;;;;;28.03;3.57;;;2.60;99.90;;;;;;5044354;23;20834;-78
2022/01/31 04:30:07;;;;;;;15.57;2.80;;;2.60;99.90;;;;;;5041762;23;20503;-78
2022/01/31 04:32:10;;;;;;;15.50;2.97;;;2.50;99.90;;;;;;5043222;23;20962;-78
2022/01/31 04:34:12;;;;;;;19.20;3.10;;;2.60;99.90;;;;;;5043786;23;20437;-78
2022/01/31 04:36:14;;;;;;;29.27;3.40;;;2.60;99.90;;;;;;5043735;23;20536;-78
2022/01/31 04:38:16;;;;;;;18.40;2.93;;;2.60;99.90;;;;;;5043583;23;20425;-78
2022/01/31 04:40:18;;;;;;;19.87;3.27;;;2.60;99.90;;;;;;5044136;23;20453;-78
2022/01/31 04:42:20;;;;;;;24.87;3.70;;;2.60;99.90;;;;;;5044323;23;20970;-78
2022/01/31 04:44:22;;;;;;;22.00;3.57;;;2.60;99.90;;;;;;5042230;23;20472;-78
2022/01/31 04:46:24;;;;;;;22.50;3.67;;;2.60;99.90;;;;;;5045407;23;20402;-78
2022/01/31 04:48:27;;;;;;;18.37;3.73;;;2.60;99.90;;;;;;5045302;23;20433;-80
2022/01/31 04:50:29;;;;;;;12.23;2.50;;;2.60;99.90;;;;;;5045158;23;20416;-78
2022/01/31 04:52:31;;;;;;;20.03;3.40;;;2.60;99.90;;;;;;5045288;23;20425;-77
2022/01/31 04:54:33;;;;;;;21.10;3.83;;;2.60;99.90;;;;;;5042960;23;20496;-80
2022/01/31 04:56:36;;;;;;;15.63;3.60;;;2.60;99.90;;;;;;5052421;23;20460;-79
2022/01/31 04:58:37;;;;;;;15.67;3.50;;;2.60;99.90;;;;;;5054199;23;20450;-79
2022/01/31 05:00:40;;;;;;;17.10;2.80;;;2.60;99.90;;;;;;5054656;23;20421;-80
2022/01/31 05:02:41;;;;;;;15.27;3.47;;;2.60;99.90;;;;;;5053719;23;20963;-80
2022/01/31 05:04:45;;;;;;;26.93;3.60;;;3.40;99.90;;;;;;5053571;23;20421;-79
2022/01/31 05:06:48;;;;;;;17.13;3.17;;;2.90;99.90;;;;;;5052352;23;20417;-79
2022/01/31 05:08:49;;;;;;;15.03;2.70;;;2.70;99.90;;;;;;5053079;23;20540;-79
2022/01/31 05:10:53;;;;;;;22.03;3.67;;;2.70;99.90;;;;;;5048324;23;20417;-79
2022/01/31 05:12:55;;;;;;;17.73;3.43;;;2.60;99.90;;;;;;5047092;23;20416;-80
2022/01/31 05:14:57;;;;;;;20.07;3.17;;;2.60;99.90;;;;;;5044531;23;20455;-79
2022/01/31 05:16:59;;;;;;;17.40;3.33;;;2.70;99.90;;;;;;5043361;23;20820;-79
2022/01/31 05:19:02;;;;;;;23.13;3.83;;;2.70;99.90;;;;;;5043553;23;20539;-79
2022/01/31 05:21:08;;;;;;;20.70;3.87;;;2.70;99.90;;;;;;5044225;23;20444;-78
2022/01/31 05:23:10;;;;;;;17.10;3.43;;;2.70;99.90;;;;;;5044721;23;20410;-78
2022/01/31 05:25:12;;;;;;;16.03;3.43;;;2.70;99.90;;;;;;5043814;23;20409;-78
2022/01/31 05:27:14;;;;;;;14.47;3.00;;;2.60;99.90;;;;;;5044411;23;20904;-78
2022/01/31 05:29:16;;;;;;;20.97;3.13;;;2.70;99.90;;;;;;5044898;23;20449;-79
2022/01/31 05:31:17;;;;;;;21.27;4.40;;;2.60;99.90;;;;;;5043898;23;20429;-79
2022/01/31 05:33:19;;;;;;;19.70;3.43;;;2.70;99.90;;;;;;5044532;23;20421;-78
2022/01/31 05:35:21;;;;;;;16.40;2.83;;;2.70;99.90;;;;;;5045184;23;20920;-78
2022/01/31 05:37:24;;;;;;;11.43;3.03;;;3.00;99.90;;;;;;5045211;23;20417;-78
2022/01/31 05:39:26;;;;;;;12.67;3.00;;;2.60;99.90;;;;;;5043464;23;20515;-79
2022/01/31 05:41:28;;;;;;;21.20;3.57;;;2.60;99.90;;;;;;5045421;23;20427;-79
2022/01/31 05:43:30;;;;;;;16.57;3.27;;;2.60;99.90;;;;;;5051318;23;20417;-79
2022/01/31 05:45:33;;;;;;;20.17;3.83;;;2.60;99.90;;;;;;5050709;23;20425;-80
2022/01/31 05:47:35;;;;;;;14.70;3.00;;;2.60;99.90;;;;;;5049060;23;20402;-78
2022/01/31 05:49:38;;;;;;;21.60;3.37;;;2.60;99.90;;;;;;5045984;23;20451;-79
2022/01/31 05:51:48;;;;;;;17.13;3.10;;;2.60;99.90;;;;;;5045856;23;20432;-79
2022/01/31 05:53:52;;;;;;;24.90;4.47;;;2.60;99.90;;;;;;5045738;23;20483;-77
2022/01/31 05:55:54;;;;;;;15.73;3.30;;;2.60;99.90;;;;;;5045885;23;20460;-79
2022/01/31 05:57:59;;;;;;;17.87;3.50;;;2.60;99.90;;;;;;5046303;23;20428;-78
2022/01/31 06:00:01;;;;;;;18.53;3.83;;;2.60;99.90;;;;;;5044389;23;20445;-79
2022/01/31 06:02:03;;;;;;;14.40;2.90;;;2.50;99.90;;;;;;5045520;23;20780;-78
2022/01/31 06:04:05;;;;;;;25.27;3.30;;;2.60;99.90;;;;;;5045655;23;20426;-80
2022/01/31 06:06:07;;;;;;;16.20;3.23;;;2.50;99.90;;;;;;5045573;23;20428;-78
2022/01/31 06:08:09;;;;;;;21.27;3.70;;;2.50;99.90;;;;;;5045500;23;20900;-79
2022/01/31 06:10:12;;;;;;;18.40;3.43;;;2.50;99.90;;;;;;5045611;23;20951;-79
2022/01/31 06:12:15;;;;;;;15.53;3.80;;;2.50;99.90;;;;;;5043760;23;20750;-77
2022/01/31 06:14:17;;;;;;;19.13;2.93;;;2.50;99.90;;;;;;5044064;23;20421;-78
2022/01/31 06:16:19;;;;;;;17.17;3.50;;;2.50;99.90;;;;;;5043906;23;20960;-78
2022/01/31 06:18:21;;;;;;;15.17;3.10;;;2.50;99.90;;;;;;5044272;23;20979;-78
2022/01/31 06:20:26;;;;;;;23.30;3.60;;;2.50;99.90;;;;;;5041666;23;20472;-78
2022/01/31 06:22:28;;;;;;;15.13;3.10;;;2.60;99.90;;;;;;5037395;23;20416;-79
2022/01/31 06:24:30;;;;;;;13.77;3.20;;;2.50;99.90;;;;;;5036525;23;20424;-78
2022/01/31 06:26:33;;;;;;;16.73;3.40;;;3.40;99.90;;;;;;5037855;23;20455;-79
2022/01/31 06:28:34;;;;;;;18.07;3.13;;;2.50;99.90;;;;;;5036802;23;20425;-78
2022/01/31 06:30:36;;;;;;;17.43;3.27;;;2.50;99.90;;;;;;5036670;23;20482;-79
2022/01/31 06:32:39;;;;;;;15.60;4.20;;;2.50;99.90;;;;;;5037715;23;20421;-78
2022/01/31 06:34:41;;;;;;;19.40;3.77;;;2.50;99.90;;;;;;5037435;23;20491;-79
2022/01/31 06:36:42;;;;;;;22.73;3.73;;;2.90;99.90;;;;;;5036967;23;20499;-79
2022/01/31 06:38:45;;;;;;;18.00;3.70;;;2.50;99.90;;;;;;5036788;23;20457;-78
2022/01/31 06:40:47;;;;;;;13.93;3.47;;;2.50;99.90;;;;;;5037853;23;20755;-79
2022/01/31 06:42:50;;;;;;;18.90;4.03;;;2.50;99.90;;;;;;5037945;23;20916;-80
2022/01/31 06:44:52;;;;;;;15.00;3.57;;;2.50;99.90;;;;;;5037740;23;20451;-80
2022/01/31 06:46:53;;;;;;;19.53;3.40;;;2.50;99.90;;;;;;5038885;23;20774;-79
2022/01/31 06:48:55;;;;;;;11.43;3.20;;;2.50;99.90;;;;;;5038642;23;20448;-80
2022/01/31 06:50:57;;;;;;;17.43;3.20;;;2.50;99.90;;;;;;5038192;23;20923;-79
2022/01/31 06:53:01;;;;;;;11.60;2.97;;;2.50;99.90;;;;;;5035978;23;20494;-78
2022/01/31 06:55:06;;;;;;;19.00;3.57;;;2.50;99.90;;;;;;5039161;23;20463;-81
2022/01/31 06:57:08;;;;;;;15.80;3.23;;;2.50;99.90;;;;;;5039956;23;20453;-80
2022/01/31 06:59:11;;;;;;;15.63;3.00;;;2.50;99.90;;;;;;5038820;23;20900;-80
2022/01/31 07:01:13;;;;;;;16.10;2.93;;;2.50;99.90;;;;;;5040483;23;20428;-80
2022/01/31 07:03:15;;;;;;;17.90;2.63;;;2.50;99.90;;;;;;5040483;23;20409;-80
2022/01/31 07:05:18;;;;;;;18.37;2.83;;;2.50;99.90;;;;;;5039285;23;20425;-80
2022/01/31 07:07:20;;;;;;;19.87;3.63;;;2.60;99.90;;;;;;5039499;23;20421;-80
2022/01/31 07:09:22;;;;;;;12.50;2.67;;;2.60;99.90;;;;;;5038543;23;20448;-80
2022/01/31 07:11:28;;;;;;;15.93;2.87;;;2.60;99.90;;;;;;5039732;23;20451;-78
2022/01/31 07:13:38;;;;;;;20.00;3.20;;;2.60;99.90;;;;;;5038770;23;20453;-78
2022/01/31 07:15:41;;;;;;;12.10;3.07;;;2.60;99.90;;;;;;5038263;23;20409;-79
2022/01/31 07:17:44;;;;;;;14.17;2.93;;;2.60;99.90;;;;;;5038334;23;20564;-78
2022/01/31 07:19:46;;;;;;;17.87;3.27;;;2.60;99.90;;;;;;5038524;23;20433;-79
2022/01/31 07:21:50;;;;;;;17.77;3.07;;;2.80;99.90;;;;;;5039176;23;20483;-79
2022/01/31 07:24:04;;;;;;;15.83;3.53;;;2.70;99.90;;;;;;5039198;23;20750;-79
2022/01/31 07:26:06;;;;;;;22.10;4.07;;;2.70;99.90;;;;;;5039370;23;20790;-79
2022/01/31 07:28:12;;;;;;;12.47;3.03;;;2.60;99.90;;;;;;5039517;23;20492;-79
2022/01/31 07:30:14;;;;;;;20.57;3.00;;;2.60;99.90;;;;;;5034343;23;20456;-79
2022/01/31 07:32:19;;;;;;;14.83;3.00;;;2.20;99.90;;;;;;5035123;23;20404;-76
2022/01/31 07:34:20;;;;;;;15.33;2.80;;;2.40;99.90;;;;;;5037430;23;20418;-77
2022/01/31 07:36:23;;;;;;;14.53;2.87;;;2.30;99.90;;;;;;5038569;23;20478;-77
2022/01/31 07:38:24;;;;;;;10.23;2.47;;;2.20;99.90;;;;;;5038298;23;20488;-78
2022/01/31 07:40:26;;;;;;;15.07;3.60;;;2.10;99.90;;;;;;5038010;23;20443;-79
2022/01/31 07:42:28;;;;;;;13.27;2.70;;;2.00;99.90;;;;;;5039218;23;20507;-80
2022/01/31 07:44:30;;;;;;;15.40;3.47;;;1.90;99.90;;;;;;5037032;23;20438;-76
2022/01/31 07:46:32;;;;;;;14.63;3.30;;;1.80;99.90;;;;;;5039162;23;20401;-78
2022/01/31 07:48:35;;;;;;;11.27;3.43;;;1.80;99.90;;;;;;5037400;23;20942;-78
2022/01/31 07:50:37;;;;;;;12.30;3.03;;;1.70;99.90;;;;;;5038898;23;20432;-78
2022/01/31 07:52:39;;;;;;;10.60;2.70;;;1.70;99.90;;;;;;5038656;23;20524;-78
2022/01/31 07:54:40;;;;;;;17.60;3.97;;;1.70;99.90;;;;;;5038862;23;20427;-78
2022/01/31 07:56:43;;;;;;;20.53;3.70;;;1.60;99.90;;;;;;5038799;23;20459;-77
2022/01/31 07:58:45;;;;;;;14.93;3.17;;;1.60;99.90;;;;;;5038769;23;20812;-77
2022/01/31 08:00:47;;;;;;;15.07;3.00;;;1.60;99.90;;;;;;5038887;23;20913;-77
2022/01/31 08:02:49;;;;;;;14.77;3.37;;;1.50;99.90;;;;;;5039875;23;20423;-77
2022/01/31 08:04:54;;;;;;;23.17;4.03;;;1.50;99.90;;;;;;5038243;23;20772;-77
2022/01/31 08:06:56;;;;;;;17.67;3.57;;;1.50;99.90;;;;;;5037067;23;20409;-78
2022/01/31 08:08:58;;;;;;;8.93;3.10;;;1.50;99.90;;;;;;5043872;23;20499;-79
2022/01/31 08:11:00;;;;;;;13.53;3.70;;;1.50;99.90;;;;;;5045819;23;20432;-78
2022/01/31 08:13:04;;;;;;;18.23;3.90;;;1.50;99.90;;;;;;5040155;23;20449;-78
2022/01/31 08:15:08;;;;;;;14.97;4.33;;;1.80;99.90;;;;;;5038237;23;20428;-78
2022/01/31 08:17:10;;;;;;;14.60;3.40;;;1.40;99.90;;;;;;5040022;23;21046;-78
2022/01/31 08:19:12;;;;;;;16.63;3.40;;;1.40;99.90;;;;;;5039278;23;20820;-78
2022/01/31 08:21:15;;;;;;;15.67;3.83;;;1.40;99.90;;;;;;5038946;23;20424;-79
2022/01/31 08:23:17;;;;;;;18.17;4.63;;;1.30;99.90;;;;;;5038212;23;20424;-77
2022/01/31 08:25:19;;;;;;;12.40;3.53;;;1.30;99.90;;;;;;5038308;23;20424;-77
2022/01/31 08:27:22;;;;;;;12.90;3.53;;;1.30;99.90;;;;;;5038950;23;20478;-76
2022/01/31 08:29:29;;;;;;;12.27;4.27;;;1.30;99.90;;;;;;5037423;23;20526;-78
2022/01/31 08:31:34;;;;;;;12.13;3.57;;;1.30;99.90;;;;;;5038110;23;20448;-77
2022/01/31 08:33:39;;;;;;;16.07;3.60;;;1.30;99.90;;;;;;5038040;23;20424;-77
2022/01/31 08:35:50;;;;;;;9.90;3.40;;;1.30;99.90;;;;;;5038455;23;20827;-80
2022/01/31 08:37:53;;;;;;;14.13;3.83;;;1.30;99.90;;;;;;5038451;23;20447;-78
2022/01/31 08:39:55;;;;;;;12.93;3.00;;;1.30;99.90;;;;;;5037662;23;20468;-76
2022/01/31 08:41:57;;;;;;;12.13;3.63;;;1.40;99.90;;;;;;5038252;23;20888;-77
2022/01/31 08:43:59;;;;;;;7.93;3.20;;;1.30;99.90;;;;;;5036020;23;20425;-77
2022/01/31 08:46:03;;;;;;;14.87;4.00;;;1.30;99.90;;;;;;5038628;23;20489;-77
2022/01/31 08:48:05;;;;;;;11.20;3.27;;;1.30;99.90;;;;;;5037480;23;20953;-77
2022/01/31 08:50:08;;;;;;;15.17;3.73;;;1.00;99.90;;;;;;5038528;23;20964;-75
2022/01/31 08:52:10;;;;;;;15.47;3.80;;;1.30;99.90;;;;;;5037606;23;20424;-76
2022/01/31 08:54:16;;;;;;;10.00;3.57;;;1.30;99.90;;;;;;5038000;23;20488;-76
2022/01/31 08:56:20;;;;;;;9.53;3.07;;;1.30;99.90;;;;;;5038371;23;20424;-76
2022/01/31 08:58:23;;;;;;;13.53;3.77;;;1.30;99.90;;;;;;5037675;23;20853;-75
2022/01/31 09:00:33;;;;;;;12.47;3.23;;;1.30;99.90;;;;;;5037508;23;20456;-76
2022/01/31 09:02:40;;;;;;;14.03;3.50;;;1.30;99.90;;;;;;5037372;23;20864;-77
2022/01/31 09:04:47;;;;;;;10.67;3.00;;;1.40;99.90;;;;;;5038175;23;20431;-75
2022/01/31 09:06:49;;;;;;;13.47;3.20;;;1.30;99.90;;;;;;5038084;23;20500;-77
2022/01/31 09:08:51;;;;;;;18.10;3.40;;;1.30;99.90;;;;;;5037724;23;20959;-75
2022/01/31 09:10:55;;;;;;;10.03;3.17;;;1.40;99.90;;;;;;5037363;23;21013;-76
2022/01/31 09:12:57;;;;;;;13.83;3.27;;;1.30;99.90;;;;;;5038031;23;20508;-77
2022/01/31 09:14:59;;;;;;;12.00;3.50;;;1.40;99.90;;;;;;5037562;23;20427;-75
2022/01/31 09:17:01;;;;;;;11.47;3.80;;;1.40;99.90;;;;;;5037749;23;20938;-75
2022/01/31 09:19:03;;;;;;;14.70;4.67;;;1.40;99.90;;;;;;5037456;23;20504;-76
2022/01/31 09:21:05;;;;;;;14.40;3.80;;;1.40;99.90;;;;;;5038189;23;20439;-77
2022/01/31 09:23:07;;;;;;;10.87;3.27;;;1.40;99.90;;;;;;5038308;23;20490;-76
2022/01/31 09:25:09;;;;;;;11.43;3.80;;;1.40;99.90;;;;;;5037850;23;20433;-75
2022/01/31 09:27:13;;;;;;;11.60;4.03;;;1.40;99.90;;;;;;5037816;23;20422;-76
2022/01/31 09:29:16;;;;;;;10.77;3.50;;;1.50;99.90;;;;;;5036332;23;20448;-78
2022/01/31 09:31:18;;;;;;;12.30;3.73;;;1.50;99.90;;;;;;5037689;23;20420;-77
2022/01/31 09:33:21;;;;;;;8.73;3.50;;;1.70;99.90;;;;;;5037308;23;20424;-77
2022/01/31 09:35:25;;;;;;;9.87;3.70;;;1.50;99.90;;;;;;5037601;23;20432;-75
2022/01/31 09:37:26;;;;;;;12.00;3.80;;;1.50;99.90;;;;;;5038005;23;20469;-75
2022/01/31 09:39:28;;;;;;;11.70;4.07;;;1.50;99.90;;;;;;5037354;23;20494;-77
2022/01/31 09:41:32;;;;;;;9.10;3.80;;;1.50;99.90;;;;;;5037928;23;20428;-75
2022/01/31 09:44:01;;;;;;;10.23;3.83;;;1.50;99.90;;;;;;5036911;23;20431;-76
2022/01/31 09:46:17;;;;;;;15.17;4.33;;;1.50;99.90;;;;;;5038307;23;20412;-75
2022/01/31 09:48:35;;;;;;;13.40;4.67;;;1.50;99.90;;;;;;5038124;23;20416;-75
2022/01/31 09:50:37;;;;;;;14.90;4.43;;;1.50;99.90;;;;;;5037625;23;20424;-77
2022/01/31 09:52:39;;;;;;;12.23;4.37;;;1.50;99.90;;;;;;5037791;23;20798;-75
2022/01/31 09:54:42;;;;;;;18.53;5.07;;;1.50;99.90;;;;;;5037320;23;20431;-76
2022/01/31 09:56:46;;;;;;;16.10;4.07;;;1.50;99.90;;;;;;5037663;23;20433;-76
2022/01/31 09:58:52;;;;;;;12.70;5.67;;;1.50;99.90;;;;;;5037538;23;20851;-75
2022/01/31 10:01:07;;;;;;;16.73;4.10;;;1.50;99.90;;;;;;5037599;23;20933;-75
2022/01/31 10:03:10;;;;;;;9.00;4.20;;;1.50;99.90;;;;;;5037695;23;20495;-77
2022/01/31 10:05:27;;;;;;;11.77;4.13;;;1.50;99.90;;;;;;5037283;23;20432;-77
2022/01/31 10:07:43;;;;;;;15.20;4.20;;;1.60;99.90;;;;;;5037982;23;20405;-77
2022/01/31 10:09:48;;;;;;;8.73;3.83;;;1.60;99.90;;;;;;5037791;23;20783;-75
2022/01/31 10:11:53;;;;;;;11.40;3.90;;;1.60;99.90;;;;;;5037831;23;20423;-75
2022/01/31 10:16:30;;;;;;;9.20;3.37;;;1.60;99.90;;;;;;5037887;23;20848;-77
2022/01/31 10:18:32;;;;;;;6.43;3.30;;;1.60;99.90;;;;;;5037765;23;20459;-75
2022/01/31 10:20:38;;;;;;;8.33;3.07;;;1.70;99.90;;;;;;5037118;23;20513;-76
2022/01/31 10:22:41;;;;;;;12.13;3.53;;;1.70;99.90;;;;;;5037181;23;20494;-77
2022/01/31 10:24:45;;;;;;;9.07;2.80;;;3.00;99.90;;;;;;5037024;23;20447;-78
2022/01/31 10:26:48;;;;;;;5.30;2.43;;;1.70;99.90;;;;;;5037157;23;20425;-78
2022/01/31 10:28:50;;;;;;;6.33;3.00;;;1.70;99.90;;;;;;5039065;23;20451;-76
2022/01/31 10:30:53;;;;;;;5.27;2.80;;;1.70;99.90;;;;;;5039463;23;20673;-75
2022/01/31 10:32:58;;;;;;;3.90;2.13;;;1.70;99.90;;;;;;5039154;23;20420;-76
2022/01/31 10:35:02;;;;;;;4.10;2.60;;;1.70;99.90;;;;;;5038627;23;20411;-77
2022/01/31 10:37:07;;;;;;;5.37;2.20;;;1.70;99.90;;;;;;5039219;23;21005;-75
2022/01/31 10:39:14;;;;;;;6.77;2.37;;;1.60;99.90;;;;;;5039030;23;21073;-75
2022/01/31 10:51:53;;;;;;;5.63;2.63;;;1.60;99.90;;;;;;5039932;23;20815;-76
2022/01/31 10:54:05;;;;;;;4.30;2.40;;;1.60;99.90;;;;;;5038123;23;20457;-78
2022/01/31 10:56:08;;;;;;;4.87;2.20;;;1.60;99.90;;;;;;5039179;23;20417;-79